sensor_id;sensor_type;location;lat;lon;timestamp;P1;durP1;ratioP1;P2;durP2;ratioP2
13743;SDS011;6943;52.368;9.966;2023-12-28T00:00:22;9.27;;;6.40;;
13743;SDS011;6943;52.368;9.966;2023-12-28T00:02:51;7.17;;;4.47;;
13743;SDS011;6943;52.368;9.966;2023-12-28T00:05:20;9.50;;;5.80;;
13743;SDS011;6943;52.368;9.966;2023-12-28T00:07:49;10.67;;;5.03;;
13743;SDS011;6943;52.368;9.966;2023-12-28T00:10:23;5.97;;;3.97;;
13743;SDS011;6943;52.368;9.966;2023-12-28T00:12:52;7.03;;;4.60;;
13743;SDS011;6943;52.368;9.966;2023-12-28T00:15:22;8.87;;;4.73;;
13743;SDS011;6943;52.368;9.966;2023-12-28T00:17:51;7.93;;;5.17;;
13743;SDS011;6943;52.368;9.966;2023-12-28T00:20:18;4.90;;;3.50;;
13743;SDS011;6943;52.368;9.966;2023-12-28T00:22:45;2.87;;;2.23;;
13743;SDS011;6943;52.368;9.966;2023-12-28T00:25:12;5.43;;;3.43;;
13743;SDS011;6943;52.368;9.966;2023-12-28T00:27:39;8.50;;;4.90;;
13743;SDS011;6943;52.368;9.966;2023-12-28T00:30:06;8.57;;;5.27;;
13743;SDS011;6943;52.368;9.966;2023-12-28T00:32:35;6.27;;;3.80;;
13743;SDS011;6943;52.368;9.966;2023-12-28T00:35:02;4.67;;;2.90;;
13743;SDS011;6943;52.368;9.966;2023-12-28T00:37:29;5.20;;;3.70;;
13743;SDS011;6943;52.368;9.966;2023-12-28T00:39:56;6.70;;;4.33;;
13743;SDS011;6943;52.368;9.966;2023-12-28T00:42:23;4.97;;;3.23;;
13743;SDS011;6943;52.368;9.966;2023-12-28T00:44:51;5.57;;;3.60;;
13743;SDS011;6943;52.368;9.966;2023-12-28T00:47:17;4.60;;;3.40;;
13743;SDS011;6943;52.368;9.966;2023-12-28T00:49:43;4.13;;;2.90;;
13743;SDS011;6943;52.368;9.966;2023-12-28T00:52:08;4.27;;;2.50;;
13743;SDS011;6943;52.368;9.966;2023-12-28T00:54:35;5.40;;;3.77;;
13743;SDS011;6943;52.368;9.966;2023-12-28T00:57:02;4.10;;;3.27;;
13743;SDS011;6943;52.368;9.966;2023-12-28T00:59:28;3.67;;;2.40;;
13743;SDS011;6943;52.368;9.966;2023-12-28T01:01:55;2.93;;;2.63;;
13743;SDS011;6943;52.368;9.966;2023-12-28T01:04:20;2.93;;;2.13;;
13743;SDS011;6943;52.368;9.966;2023-12-28T01:06:48;2.67;;;2.20;;
13743;SDS011;6943;52.368;9.966;2023-12-28T01:09:14;4.97;;;3.23;;
13743;SDS011;6943;52.368;9.966;2023-12-28T01:11:40;3.10;;;2.50;;
13743;SDS011;6943;52.368;9.966;2023-12-28T01:14:05;4.93;;;3.17;;
13743;SDS011;6943;52.368;9.966;2023-12-28T01:16:31;4.43;;;2.60;;
13743;SDS011;6943;52.368;9.966;2023-12-28T01:18:56;5.93;;;3.33;;
13743;SDS011;6943;52.368;9.966;2023-12-28T01:21:22;3.73;;;2.87;;
13743;SDS011;6943;52.368;9.966;2023-12-28T01:23:49;4.40;;;2.77;;
13743;SDS011;6943;52.368;9.966;2023-12-28T01:26:15;5.30;;;3.07;;
13743;SDS011;6943;52.368;9.966;2023-12-28T01:28:42;5.00;;;3.90;;
13743;SDS011;6943;52.368;9.966;2023-12-28T01:31:08;5.67;;;3.50;;
13743;SDS011;6943;52.368;9.966;2023-12-28T01:33:33;5.50;;;3.73;;
13743;SDS011;6943;52.368;9.966;2023-12-28T01:36:00;5.07;;;2.27;;
13743;SDS011;6943;52.368;9.966;2023-12-28T01:38:26;3.27;;;1.83;;
13743;SDS011;6943;52.368;9.966;2023-12-28T01:40:52;3.37;;;1.70;;
13743;SDS011;6943;52.368;9.966;2023-12-28T01:43:18;2.70;;;1.90;;
13743;SDS011;6943;52.368;9.966;2023-12-28T01:45:44;4.13;;;1.70;;
13743;SDS011;6943;52.368;9.966;2023-12-28T01:48:10;3.30;;;2.13;;
13743;SDS011;6943;52.368;9.966;2023-12-28T01:50:36;4.97;;;1.63;;
13743;SDS011;6943;52.368;9.966;2023-12-28T01:53:02;2.40;;;1.70;;
13743;SDS011;6943;52.368;9.966;2023-12-28T01:55:28;2.43;;;1.67;;
13743;SDS011;6943;52.368;9.966;2023-12-28T01:57:55;4.87;;;3.97;;
13743;SDS011;6943;52.368;9.966;2023-12-28T02:00:21;7.10;;;3.73;;
13743;SDS011;6943;52.368;9.966;2023-12-28T02:02:47;8.57;;;6.10;;
13743;SDS011;6943;52.368;9.966;2023-12-28T02:05:13;6.23;;;4.93;;
13743;SDS011;6943;52.368;9.966;2023-12-28T02:07:40;5.67;;;4.50;;
13743;SDS011;6943;52.368;9.966;2023-12-28T02:10:06;4.20;;;3.00;;
13743;SDS011;6943;52.368;9.966;2023-12-28T02:12:32;4.37;;;2.63;;
13743;SDS011;6943;52.368;9.966;2023-12-28T02:14:58;3.83;;;3.20;;
13743;SDS011;6943;52.368;9.966;2023-12-28T02:17:28;4.67;;;2.57;;
13743;SDS011;6943;52.368;9.966;2023-12-28T02:20:00;3.53;;;3.23;;
13743;SDS011;6943;52.368;9.966;2023-12-28T02:22:30;3.03;;;2.57;;
13743;SDS011;6943;52.368;9.966;2023-12-28T02:25:04;4.83;;;3.13;;
13743;SDS011;6943;52.368;9.966;2023-12-28T02:27:34;3.97;;;2.50;;
13743;SDS011;6943;52.368;9.966;2023-12-28T02:30:03;3.70;;;2.40;;
13743;SDS011;6943;52.368;9.966;2023-12-28T02:33:15;3.20;;;2.27;;
13743;SDS011;6943;52.368;9.966;2023-12-28T02:35:32;3.37;;;2.33;;
13743;SDS011;6943;52.368;9.966;2023-12-28T02:38:01;4.23;;;2.30;;
13743;SDS011;6943;52.368;9.966;2023-12-28T02:40:31;2.77;;;2.13;;
13743;SDS011;6943;52.368;9.966;2023-12-28T02:43:05;2.53;;;2.00;;
13743;SDS011;6943;52.368;9.966;2023-12-28T02:45:33;2.60;;;1.87;;
13743;SDS011;6943;52.368;9.966;2023-12-28T02:47:59;3.23;;;2.60;;
13743;SDS011;6943;52.368;9.966;2023-12-28T02:50:25;2.40;;;2.03;;
13743;SDS011;6943;52.368;9.966;2023-12-28T02:52:50;4.97;;;2.80;;
13743;SDS011;6943;52.368;9.966;2023-12-28T02:55:16;3.37;;;2.30;;
13743;SDS011;6943;52.368;9.966;2023-12-28T02:57:43;2.40;;;1.83;;
13743;SDS011;6943;52.368;9.966;2023-12-28T03:00:09;2.80;;;2.17;;
13743;SDS011;6943;52.368;9.966;2023-12-28T03:02:36;3.10;;;2.10;;
13743;SDS011;6943;52.368;9.966;2023-12-28T03:05:02;3.70;;;2.30;;
13743;SDS011;6943;52.368;9.966;2023-12-28T03:07:29;2.60;;;2.40;;
13743;SDS011;6943;52.368;9.966;2023-12-28T03:09:54;2.40;;;2.10;;
13743;SDS011;6943;52.368;9.966;2023-12-28T03:12:20;3.00;;;2.53;;
13743;SDS011;6943;52.368;9.966;2023-12-28T03:14:45;3.50;;;2.70;;
13743;SDS011;6943;52.368;9.966;2023-12-28T03:17:11;3.47;;;2.50;;
13743;SDS011;6943;52.368;9.966;2023-12-28T03:19:37;4.63;;;2.93;;
13743;SDS011;6943;52.368;9.966;2023-12-28T03:22:02;6.77;;;2.53;;
13743;SDS011;6943;52.368;9.966;2023-12-28T03:24:28;4.67;;;3.03;;
13743;SDS011;6943;52.368;9.966;2023-12-28T03:26:53;3.13;;;2.60;;
13743;SDS011;6943;52.368;9.966;2023-12-28T03:29:19;3.80;;;2.60;;
13743;SDS011;6943;52.368;9.966;2023-12-28T03:31:45;5.27;;;3.10;;
13743;SDS011;6943;52.368;9.966;2023-12-28T03:34:10;2.77;;;2.20;;
13743;SDS011;6943;52.368;9.966;2023-12-28T03:36:36;5.17;;;2.70;;
13743;SDS011;6943;52.368;9.966;2023-12-28T03:39:02;3.03;;;2.40;;
13743;SDS011;6943;52.368;9.966;2023-12-28T03:41:28;4.27;;;3.30;;
13743;SDS011;6943;52.368;9.966;2023-12-28T03:43:55;4.00;;;3.00;;
13743;SDS011;6943;52.368;9.966;2023-12-28T03:46:20;4.27;;;2.80;;
13743;SDS011;6943;52.368;9.966;2023-12-28T03:48:46;3.13;;;2.67;;
13743;SDS011;6943;52.368;9.966;2023-12-28T03:51:15;5.47;;;2.77;;
13743;SDS011;6943;52.368;9.966;2023-12-28T03:53:41;2.67;;;2.47;;
13743;SDS011;6943;52.368;9.966;2023-12-28T03:56:07;5.17;;;4.40;;
13743;SDS011;6943;52.368;9.966;2023-12-28T03:58:32;4.43;;;2.73;;
13743;SDS011;6943;52.368;9.966;2023-12-28T04:00:58;4.07;;;2.60;;
13743;SDS011;6943;52.368;9.966;2023-12-28T04:03:23;4.27;;;2.60;;
13743;SDS011;6943;52.368;9.966;2023-12-28T04:05:50;2.93;;;2.60;;
13743;SDS011;6943;52.368;9.966;2023-12-28T04:08:16;3.07;;;2.30;;
13743;SDS011;6943;52.368;9.966;2023-12-28T04:10:41;3.23;;;2.70;;
13743;SDS011;6943;52.368;9.966;2023-12-28T04:13:07;3.13;;;2.37;;
13743;SDS011;6943;52.368;9.966;2023-12-28T04:15:32;2.80;;;2.00;;
13743;SDS011;6943;52.368;9.966;2023-12-28T04:17:58;4.53;;;3.50;;
13743;SDS011;6943;52.368;9.966;2023-12-28T04:20:23;2.50;;;2.23;;
13743;SDS011;6943;52.368;9.966;2023-12-28T04:22:49;3.77;;;2.13;;
13743;SDS011;6943;52.368;9.966;2023-12-28T04:25:14;3.20;;;2.33;;
13743;SDS011;6943;52.368;9.966;2023-12-28T04:27:43;2.60;;;2.10;;
13743;SDS011;6943;52.368;9.966;2023-12-28T04:30:11;3.20;;;2.20;;
13743;SDS011;6943;52.368;9.966;2023-12-28T04:32:37;2.67;;;1.93;;
13743;SDS011;6943;52.368;9.966;2023-12-28T04:35:04;3.90;;;2.20;;
13743;SDS011;6943;52.368;9.966;2023-12-28T04:37:30;4.53;;;2.33;;
13743;SDS011;6943;52.368;9.966;2023-12-28T04:39:57;2.73;;;2.10;;
13743;SDS011;6943;52.368;9.966;2023-12-28T04:42:23;5.00;;;2.30;;
13743;SDS011;6943;52.368;9.966;2023-12-28T04:44:50;2.57;;;2.13;;
13743;SDS011;6943;52.368;9.966;2023-12-28T04:47:16;4.50;;;2.00;;
13743;SDS011;6943;52.368;9.966;2023-12-28T04:49:42;5.10;;;1.90;;
13743;SDS011;6943;52.368;9.966;2023-12-28T04:52:07;2.40;;;1.60;;
13743;SDS011;6943;52.368;9.966;2023-12-28T04:54:33;2.87;;;2.10;;
13743;SDS011;6943;52.368;9.966;2023-12-28T04:56:59;3.27;;;2.20;;
13743;SDS011;6943;52.368;9.966;2023-12-28T04:59:24;2.33;;;1.80;;
13743;SDS011;6943;52.368;9.966;2023-12-28T05:01:50;3.10;;;2.07;;
13743;SDS011;6943;52.368;9.966;2023-12-28T05:04:16;2.50;;;1.80;;
13743;SDS011;6943;52.368;9.966;2023-12-28T05:06:41;3.07;;;1.90;;
13743;SDS011;6943;52.368;9.966;2023-12-28T05:09:07;2.03;;;1.60;;
13743;SDS011;6943;52.368;9.966;2023-12-28T05:11:32;2.53;;;2.00;;
13743;SDS011;6943;52.368;9.966;2023-12-28T05:13:58;2.63;;;1.97;;
13743;SDS011;6943;52.368;9.966;2023-12-28T05:16:23;3.27;;;2.07;;
13743;SDS011;6943;52.368;9.966;2023-12-28T05:18:49;2.13;;;1.93;;
13743;SDS011;6943;52.368;9.966;2023-12-28T05:21:14;2.63;;;1.83;;
13743;SDS011;6943;52.368;9.966;2023-12-28T05:23:40;3.00;;;1.83;;
13743;SDS011;6943;52.368;9.966;2023-12-28T05:26:06;3.03;;;2.00;;
13743;SDS011;6943;52.368;9.966;2023-12-28T05:28:32;5.60;;;2.17;;
13743;SDS011;6943;52.368;9.966;2023-12-28T05:30:57;2.27;;;1.77;;
13743;SDS011;6943;52.368;9.966;2023-12-28T05:33:26;3.73;;;1.90;;
13743;SDS011;6943;52.368;9.966;2023-12-28T05:35:52;1.43;;;1.30;;
13743;SDS011;6943;52.368;9.966;2023-12-28T05:38:18;4.00;;;1.93;;
13743;SDS011;6943;52.368;9.966;2023-12-28T05:40:43;3.50;;;1.70;;
13743;SDS011;6943;52.368;9.966;2023-12-28T05:43:09;2.77;;;1.87;;
13743;SDS011;6943;52.368;9.966;2023-12-28T05:45:35;2.37;;;1.63;;
13743;SDS011;6943;52.368;9.966;2023-12-28T05:48:01;3.07;;;2.17;;
13743;SDS011;6943;52.368;9.966;2023-12-28T05:50:26;3.10;;;1.70;;
13743;SDS011;6943;52.368;9.966;2023-12-28T05:52:52;4.17;;;2.10;;
13743;SDS011;6943;52.368;9.966;2023-12-28T05:55:17;4.13;;;2.00;;
13743;SDS011;6943;52.368;9.966;2023-12-28T05:57:43;2.57;;;1.90;;
13743;SDS011;6943;52.368;9.966;2023-12-28T06:00:09;3.13;;;1.70;;
13743;SDS011;6943;52.368;9.966;2023-12-28T06:02:35;2.53;;;1.70;;
13743;SDS011;6943;52.368;9.966;2023-12-28T06:05:00;2.53;;;1.80;;
13743;SDS011;6943;52.368;9.966;2023-12-28T06:07:26;1.63;;;1.53;;
13743;SDS011;6943;52.368;9.966;2023-12-28T06:09:52;9.40;;;2.03;;
13743;SDS011;6943;52.368;9.966;2023-12-28T06:12:17;3.70;;;1.80;;
13743;SDS011;6943;52.368;9.966;2023-12-28T06:14:43;2.50;;;1.60;;
13743;SDS011;6943;52.368;9.966;2023-12-28T06:17:08;3.23;;;1.70;;
13743;SDS011;6943;52.368;9.966;2023-12-28T06:19:34;3.93;;;1.77;;
13743;SDS011;6943;52.368;9.966;2023-12-28T06:21:59;2.93;;;1.63;;
13743;SDS011;6943;52.368;9.966;2023-12-28T06:24:25;2.53;;;1.70;;
13743;SDS011;6943;52.368;9.966;2023-12-28T06:26:50;4.27;;;1.97;;
13743;SDS011;6943;52.368;9.966;2023-12-28T06:29:15;3.00;;;1.93;;
13743;SDS011;6943;52.368;9.966;2023-12-28T06:31:41;3.03;;;1.40;;
13743;SDS011;6943;52.368;9.966;2023-12-28T06:34:06;1.87;;;1.73;;
13743;SDS011;6943;52.368;9.966;2023-12-28T06:36:32;2.80;;;1.63;;
13743;SDS011;6943;52.368;9.966;2023-12-28T06:38:58;1.87;;;1.30;;
13743;SDS011;6943;52.368;9.966;2023-12-28T06:41:24;4.33;;;1.70;;
13743;SDS011;6943;52.368;9.966;2023-12-28T06:43:51;5.77;;;1.70;;
13743;SDS011;6943;52.368;9.966;2023-12-28T06:46:17;5.67;;;1.87;;
13743;SDS011;6943;52.368;9.966;2023-12-28T06:48:44;2.50;;;1.50;;
13743;SDS011;6943;52.368;9.966;2023-12-28T06:51:10;3.63;;;1.80;;
13743;SDS011;6943;52.368;9.966;2023-12-28T06:53:42;3.77;;;1.60;;
13743;SDS011;6943;52.368;9.966;2023-12-28T06:56:07;2.67;;;1.57;;
13743;SDS011;6943;52.368;9.966;2023-12-28T06:58:34;3.50;;;1.93;;
13743;SDS011;6943;52.368;9.966;2023-12-28T07:01:02;3.23;;;1.73;;
13743;SDS011;6943;52.368;9.966;2023-12-28T07:03:28;4.50;;;1.73;;
13743;SDS011;6943;52.368;9.966;2023-12-28T07:05:57;2.40;;;1.60;;
13743;SDS011;6943;52.368;9.966;2023-12-28T07:08:27;5.47;;;1.73;;
13743;SDS011;6943;52.368;9.966;2023-12-28T07:10:53;3.13;;;1.50;;
13743;SDS011;6943;52.368;9.966;2023-12-28T07:13:19;1.70;;;1.53;;
13743;SDS011;6943;52.368;9.966;2023-12-28T07:15:44;2.77;;;1.57;;
13743;SDS011;6943;52.368;9.966;2023-12-28T07:18:10;3.33;;;1.60;;
13743;SDS011;6943;52.368;9.966;2023-12-28T07:20:36;3.17;;;1.60;;
13743;SDS011;6943;52.368;9.966;2023-12-28T07:23:01;3.40;;;1.80;;
13743;SDS011;6943;52.368;9.966;2023-12-28T07:25:28;4.00;;;1.80;;
13743;SDS011;6943;52.368;9.966;2023-12-28T07:27:53;2.73;;;1.40;;
13743;SDS011;6943;52.368;9.966;2023-12-28T07:30:19;4.33;;;1.40;;
13743;SDS011;6943;52.368;9.966;2023-12-28T07:32:44;2.53;;;1.67;;
13743;SDS011;6943;52.368;9.966;2023-12-28T07:35:10;4.37;;;1.40;;
13743;SDS011;6943;52.368;9.966;2023-12-28T07:37:36;4.53;;;1.67;;
13743;SDS011;6943;52.368;9.966;2023-12-28T07:40:01;4.37;;;1.80;;
13743;SDS011;6943;52.368;9.966;2023-12-28T07:42:28;1.90;;;1.40;;
13743;SDS011;6943;52.368;9.966;2023-12-28T07:44:53;5.13;;;1.53;;
13743;SDS011;6943;52.368;9.966;2023-12-28T07:47:19;3.20;;;1.57;;
13743;SDS011;6943;52.368;9.966;2023-12-28T07:49:45;2.40;;;1.23;;
13743;SDS011;6943;52.368;9.966;2023-12-28T07:52:10;2.93;;;1.40;;
13743;SDS011;6943;52.368;9.966;2023-12-28T07:54:36;2.40;;;1.50;;
13743;SDS011;6943;52.368;9.966;2023-12-28T07:57:01;3.20;;;1.40;;
13743;SDS011;6943;52.368;9.966;2023-12-28T07:59:27;4.33;;;2.90;;
13743;SDS011;6943;52.368;9.966;2023-12-28T08:01:52;3.60;;;1.90;;
13743;SDS011;6943;52.368;9.966;2023-12-28T08:04:18;2.93;;;1.40;;
13743;SDS011;6943;52.368;9.966;2023-12-28T08:06:43;2.67;;;1.80;;
13743;SDS011;6943;52.368;9.966;2023-12-28T08:09:09;5.00;;;1.77;;
13743;SDS011;6943;52.368;9.966;2023-12-28T08:11:35;3.03;;;1.67;;
13743;SDS011;6943;52.368;9.966;2023-12-28T08:14:00;3.90;;;1.73;;
13743;SDS011;6943;52.368;9.966;2023-12-28T08:16:26;2.87;;;1.67;;
13743;SDS011;6943;52.368;9.966;2023-12-28T08:18:52;3.73;;;1.80;;
13743;SDS011;6943;52.368;9.966;2023-12-28T08:21:18;3.07;;;1.70;;
13743;SDS011;6943;52.368;9.966;2023-12-28T08:23:44;4.60;;;1.80;;
13743;SDS011;6943;52.368;9.966;2023-12-28T08:26:09;3.30;;;2.10;;
13743;SDS011;6943;52.368;9.966;2023-12-28T08:28:35;4.17;;;2.37;;
13743;SDS011;6943;52.368;9.966;2023-12-28T08:31:01;4.60;;;1.83;;
13743;SDS011;6943;52.368;9.966;2023-12-28T08:33:27;4.60;;;2.00;;
13743;SDS011;6943;52.368;9.966;2023-12-28T08:35:52;3.07;;;1.57;;
13743;SDS011;6943;52.368;9.966;2023-12-28T08:38:18;4.47;;;1.60;;
13743;SDS011;6943;52.368;9.966;2023-12-28T08:40:44;5.43;;;1.70;;
13743;SDS011;6943;52.368;9.966;2023-12-28T08:43:10;6.40;;;2.00;;
13743;SDS011;6943;52.368;9.966;2023-12-28T08:45:35;3.20;;;1.80;;
13743;SDS011;6943;52.368;9.966;2023-12-28T08:48:01;4.40;;;1.70;;
13743;SDS011;6943;52.368;9.966;2023-12-28T08:50:27;7.23;;;1.70;;
13743;SDS011;6943;52.368;9.966;2023-12-28T08:52:52;3.60;;;1.80;;
13743;SDS011;6943;52.368;9.966;2023-12-28T08:55:18;3.37;;;1.73;;
13743;SDS011;6943;52.368;9.966;2023-12-28T08:57:43;3.03;;;1.60;;
13743;SDS011;6943;52.368;9.966;2023-12-28T09:00:09;4.03;;;1.87;;
13743;SDS011;6943;52.368;9.966;2023-12-28T09:02:35;3.30;;;1.77;;
13743;SDS011;6943;52.368;9.966;2023-12-28T09:05:02;5.00;;;1.70;;
13743;SDS011;6943;52.368;9.966;2023-12-28T09:07:27;3.60;;;1.60;;
13743;SDS011;6943;52.368;9.966;2023-12-28T09:09:53;2.47;;;1.43;;
13743;SDS011;6943;52.368;9.966;2023-12-28T09:12:19;2.77;;;1.63;;
13743;SDS011;6943;52.368;9.966;2023-12-28T09:14:44;3.27;;;1.70;;
13743;SDS011;6943;52.368;9.966;2023-12-28T09:17:10;8.50;;;1.93;;
13743;SDS011;6943;52.368;9.966;2023-12-28T09:19:36;4.17;;;1.70;;
13743;SDS011;6943;52.368;9.966;2023-12-28T09:22:01;3.70;;;1.80;;
13743;SDS011;6943;52.368;9.966;2023-12-28T09:24:28;6.30;;;1.70;;
13743;SDS011;6943;52.368;9.966;2023-12-28T09:26:54;3.03;;;1.53;;
13743;SDS011;6943;52.368;9.966;2023-12-28T09:29:19;2.53;;;1.47;;
13743;SDS011;6943;52.368;9.966;2023-12-28T09:31:45;5.13;;;1.70;;
13743;SDS011;6943;52.368;9.966;2023-12-28T09:34:11;4.57;;;1.73;;
13743;SDS011;6943;52.368;9.966;2023-12-28T09:36:36;3.57;;;1.73;;
13743;SDS011;6943;52.368;9.966;2023-12-28T09:39:02;3.73;;;1.70;;
13743;SDS011;6943;52.368;9.966;2023-12-28T09:41:29;3.63;;;1.80;;
13743;SDS011;6943;52.368;9.966;2023-12-28T09:44:02;3.93;;;1.40;;
13743;SDS011;6943;52.368;9.966;2023-12-28T09:46:33;3.27;;;1.60;;
13743;SDS011;6943;52.368;9.966;2023-12-28T09:49:00;4.87;;;1.53;;
13743;SDS011;6943;52.368;9.966;2023-12-28T09:51:26;5.17;;;1.70;;
13743;SDS011;6943;52.368;9.966;2023-12-28T09:53:52;4.33;;;1.60;;
13743;SDS011;6943;52.368;9.966;2023-12-28T09:56:18;2.50;;;1.50;;
13743;SDS011;6943;52.368;9.966;2023-12-28T09:58:44;3.47;;;1.47;;
13743;SDS011;6943;52.368;9.966;2023-12-28T10:01:11;3.00;;;1.50;;
13743;SDS011;6943;52.368;9.966;2023-12-28T10:03:39;2.20;;;1.30;;
13743;SDS011;6943;52.368;9.966;2023-12-28T10:06:05;4.73;;;1.60;;
13743;SDS011;6943;52.368;9.966;2023-12-28T10:08:30;3.20;;;1.53;;
13743;SDS011;6943;52.368;9.966;2023-12-28T10:10:56;2.50;;;1.80;;
13743;SDS011;6943;52.368;9.966;2023-12-28T10:13:24;3.10;;;1.40;;
13743;SDS011;6943;52.368;9.966;2023-12-28T10:15:50;2.20;;;1.60;;
13743;SDS011;6943;52.368;9.966;2023-12-28T10:18:18;3.87;;;1.43;;
13743;SDS011;6943;52.368;9.966;2023-12-28T10:20:48;4.57;;;2.00;;
13743;SDS011;6943;52.368;9.966;2023-12-28T10:23:18;5.50;;;1.93;;
13743;SDS011;6943;52.368;9.966;2023-12-28T10:25:44;2.23;;;1.40;;
13743;SDS011;6943;52.368;9.966;2023-12-28T10:28:10;3.53;;;1.50;;
13743;SDS011;6943;52.368;9.966;2023-12-28T10:30:37;4.53;;;1.77;;
13743;SDS011;6943;52.368;9.966;2023-12-28T10:33:06;4.23;;;1.90;;
13743;SDS011;6943;52.368;9.966;2023-12-28T10:35:32;4.93;;;2.13;;
13743;SDS011;6943;52.368;9.966;2023-12-28T10:38:01;2.80;;;1.60;;
13743;SDS011;6943;52.368;9.966;2023-12-28T10:40:29;4.27;;;1.60;;
13743;SDS011;6943;52.368;9.966;2023-12-28T10:42:57;3.03;;;1.50;;
13743;SDS011;6943;52.368;9.966;2023-12-28T10:45:27;4.77;;;1.53;;
13743;SDS011;6943;52.368;9.966;2023-12-28T10:48:00;3.03;;;1.70;;
13743;SDS011;6943;52.368;9.966;2023-12-28T10:50:35;4.27;;;2.10;;
13743;SDS011;6943;52.368;9.966;2023-12-28T10:53:12;6.53;;;1.70;;
13743;SDS011;6943;52.368;9.966;2023-12-28T10:59:07;6.80;;;2.17;;
13743;SDS011;6943;52.368;9.966;2023-12-28T11:01:49;6.60;;;1.90;;
13743;SDS011;6943;52.368;9.966;2023-12-28T11:06:56;4.27;;;1.70;;
13743;SDS011;6943;52.368;9.966;2023-12-28T11:09:24;4.33;;;1.53;;
13743;SDS011;6943;52.368;9.966;2023-12-28T11:11:55;7.07;;;2.13;;
13743;SDS011;6943;52.368;9.966;2023-12-28T11:14:25;7.43;;;2.03;;
13743;SDS011;6943;52.368;9.966;2023-12-28T11:16:52;4.80;;;1.80;;
13743;SDS011;6943;52.368;9.966;2023-12-28T11:19:19;4.50;;;1.87;;
13743;SDS011;6943;52.368;9.966;2023-12-28T11:21:46;4.37;;;2.13;;
13743;SDS011;6943;52.368;9.966;2023-12-28T11:24:13;5.80;;;2.10;;
13743;SDS011;6943;52.368;9.966;2023-12-28T11:26:39;4.10;;;1.57;;
13743;SDS011;6943;52.368;9.966;2023-12-28T11:29:05;9.57;;;2.33;;
13743;SDS011;6943;52.368;9.966;2023-12-28T11:31:34;6.13;;;3.00;;
13743;SDS011;6943;52.368;9.966;2023-12-28T11:34:00;8.73;;;3.07;;
13743;SDS011;6943;52.368;9.966;2023-12-28T11:36:35;5.23;;;2.17;;
13743;SDS011;6943;52.368;9.966;2023-12-28T11:39:05;2.37;;;1.80;;
13743;SDS011;6943;52.368;9.966;2023-12-28T11:41:32;6.83;;;2.23;;
13743;SDS011;6943;52.368;9.966;2023-12-28T11:44:01;6.43;;;2.10;;
13743;SDS011;6943;52.368;9.966;2023-12-28T11:46:29;7.87;;;2.00;;
13743;SDS011;6943;52.368;9.966;2023-12-28T11:49:08;6.03;;;2.07;;
13743;SDS011;6943;52.368;9.966;2023-12-28T11:51:35;6.57;;;1.90;;
13743;SDS011;6943;52.368;9.966;2023-12-28T11:54:05;4.43;;;1.60;;
13743;SDS011;6943;52.368;9.966;2023-12-28T11:56:32;4.43;;;1.60;;
13743;SDS011;6943;52.368;9.966;2023-12-28T11:58:58;8.63;;;1.97;;
13743;SDS011;6943;52.368;9.966;2023-12-28T12:01:24;5.63;;;2.13;;
13743;SDS011;6943;52.368;9.966;2023-12-28T12:03:50;5.97;;;1.83;;
13743;SDS011;6943;52.368;9.966;2023-12-28T12:06:15;5.33;;;1.93;;
13743;SDS011;6943;52.368;9.966;2023-12-28T12:08:44;7.47;;;2.13;;
13743;SDS011;6943;52.368;9.966;2023-12-28T12:11:11;5.37;;;2.20;;
13743;SDS011;6943;52.368;9.966;2023-12-28T12:13:37;8.10;;;2.00;;
13743;SDS011;6943;52.368;9.966;2023-12-28T12:16:03;7.10;;;2.43;;
13743;SDS011;6943;52.368;9.966;2023-12-28T12:18:30;8.83;;;2.47;;
13743;SDS011;6943;52.368;9.966;2023-12-28T12:20:57;3.60;;;1.87;;
13743;SDS011;6943;52.368;9.966;2023-12-28T12:23:23;7.73;;;2.50;;
13743;SDS011;6943;52.368;9.966;2023-12-28T12:25:49;5.77;;;1.87;;
13743;SDS011;6943;52.368;9.966;2023-12-28T12:28:14;5.33;;;1.87;;
13743;SDS011;6943;52.368;9.966;2023-12-28T12:30:40;4.93;;;1.83;;
13743;SDS011;6943;52.368;9.966;2023-12-28T12:33:06;6.43;;;1.80;;
13743;SDS011;6943;52.368;9.966;2023-12-28T12:35:31;8.83;;;2.00;;
13743;SDS011;6943;52.368;9.966;2023-12-28T12:37:57;4.00;;;2.03;;
13743;SDS011;6943;52.368;9.966;2023-12-28T12:40:24;7.50;;;2.30;;
13743;SDS011;6943;52.368;9.966;2023-12-28T12:42:53;9.13;;;2.23;;
13743;SDS011;6943;52.368;9.966;2023-12-28T12:45:19;5.33;;;1.63;;
13743;SDS011;6943;52.368;9.966;2023-12-28T12:47:46;4.47;;;1.77;;
13743;SDS011;6943;52.368;9.966;2023-12-28T12:50:12;8.00;;;1.73;;
13743;SDS011;6943;52.368;9.966;2023-12-28T12:52:39;7.57;;;1.80;;
13743;SDS011;6943;52.368;9.966;2023-12-28T12:55:06;4.83;;;1.90;;
13743;SDS011;6943;52.368;9.966;2023-12-28T12:57:36;5.80;;;2.30;;
13743;SDS011;6943;52.368;9.966;2023-12-28T13:00:03;7.83;;;2.00;;
13743;SDS011;6943;52.368;9.966;2023-12-28T13:02:33;6.60;;;1.93;;
13743;SDS011;6943;52.368;9.966;2023-12-28T13:05:00;6.07;;;1.90;;
13743;SDS011;6943;52.368;9.966;2023-12-28T13:07:26;5.63;;;1.60;;
13743;SDS011;6943;52.368;9.966;2023-12-28T13:09:51;8.03;;;2.57;;
13743;SDS011;6943;52.368;9.966;2023-12-28T13:12:17;8.23;;;2.00;;
13743;SDS011;6943;52.368;9.966;2023-12-28T13:14:43;9.70;;;1.93;;
13743;SDS011;6943;52.368;9.966;2023-12-28T13:17:09;5.43;;;2.00;;
13743;SDS011;6943;52.368;9.966;2023-12-28T13:19:35;6.47;;;2.03;;
13743;SDS011;6943;52.368;9.966;2023-12-28T13:22:01;4.83;;;2.17;;
13743;SDS011;6943;52.368;9.966;2023-12-28T13:24:27;6.97;;;2.33;;
13743;SDS011;6943;52.368;9.966;2023-12-28T13:26:53;6.60;;;2.17;;
13743;SDS011;6943;52.368;9.966;2023-12-28T13:29:19;4.10;;;2.00;;
13743;SDS011;6943;52.368;9.966;2023-12-28T13:31:45;7.07;;;1.87;;
13743;SDS011;6943;52.368;9.966;2023-12-28T13:34:15;4.10;;;1.83;;
13743;SDS011;6943;52.368;9.966;2023-12-28T13:36:41;4.13;;;1.83;;
13743;SDS011;6943;52.368;9.966;2023-12-28T13:39:08;9.70;;;2.57;;
13743;SDS011;6943;52.368;9.966;2023-12-28T13:41:36;6.37;;;1.80;;
13743;SDS011;6943;52.368;9.966;2023-12-28T13:44:02;5.80;;;1.93;;
13743;SDS011;6943;52.368;9.966;2023-12-28T13:46:29;4.73;;;1.57;;
13743;SDS011;6943;52.368;9.966;2023-12-28T13:48:55;7.40;;;2.10;;
13743;SDS011;6943;52.368;9.966;2023-12-28T13:51:21;4.67;;;1.97;;
13743;SDS011;6943;52.368;9.966;2023-12-28T13:53:47;7.20;;;1.80;;
13743;SDS011;6943;52.368;9.966;2023-12-28T13:56:13;6.73;;;1.50;;
13743;SDS011;6943;52.368;9.966;2023-12-28T13:58:39;4.93;;;1.63;;
13743;SDS011;6943;52.368;9.966;2023-12-28T14:01:05;9.87;;;2.50;;
13743;SDS011;6943;52.368;9.966;2023-12-28T14:03:31;9.37;;;2.00;;
13743;SDS011;6943;52.368;9.966;2023-12-28T14:05:56;6.70;;;1.87;;
13743;SDS011;6943;52.368;9.966;2023-12-28T14:08:22;5.00;;;1.63;;
13743;SDS011;6943;52.368;9.966;2023-12-28T14:10:48;3.47;;;1.70;;
13743;SDS011;6943;52.368;9.966;2023-12-28T14:13:13;3.67;;;1.60;;
13743;SDS011;6943;52.368;9.966;2023-12-28T14:15:39;5.80;;;1.97;;
13743;SDS011;6943;52.368;9.966;2023-12-28T14:18:04;4.50;;;2.13;;
13743;SDS011;6943;52.368;9.966;2023-12-28T14:20:31;5.27;;;1.87;;
13743;SDS011;6943;52.368;9.966;2023-12-28T14:22:57;5.57;;;1.90;;
13743;SDS011;6943;52.368;9.966;2023-12-28T14:25:23;11.80;;;2.10;;
13743;SDS011;6943;52.368;9.966;2023-12-28T14:27:49;6.80;;;2.53;;
13743;SDS011;6943;52.368;9.966;2023-12-28T14:30:15;5.20;;;1.70;;
13743;SDS011;6943;52.368;9.966;2023-12-28T14:32:41;6.83;;;2.10;;
13743;SDS011;6943;52.368;9.966;2023-12-28T14:35:07;3.80;;;2.40;;
13743;SDS011;6943;52.368;9.966;2023-12-28T14:37:33;6.13;;;1.90;;
13743;SDS011;6943;52.368;9.966;2023-12-28T14:39:58;6.03;;;2.57;;
13743;SDS011;6943;52.368;9.966;2023-12-28T14:42:24;12.43;;;6.40;;
13743;SDS011;6943;52.368;9.966;2023-12-28T14:44:49;10.47;;;4.97;;
13743;SDS011;6943;52.368;9.966;2023-12-28T14:47:16;7.53;;;2.80;;
13743;SDS011;6943;52.368;9.966;2023-12-28T14:49:42;7.53;;;4.03;;
13743;SDS011;6943;52.368;9.966;2023-12-28T14:52:09;6.30;;;1.90;;
13743;SDS011;6943;52.368;9.966;2023-12-28T14:54:35;6.30;;;2.33;;
13743;SDS011;6943;52.368;9.966;2023-12-28T14:57:00;6.53;;;3.23;;
13743;SDS011;6943;52.368;9.966;2023-12-28T14:59:26;6.67;;;2.53;;
13743;SDS011;6943;52.368;9.966;2023-12-28T15:01:51;8.07;;;4.10;;